createdAt,value
2023-09-08T00:01:44.031Z,16.82
2023-09-08T00:04:15.952Z,16.80
2023-09-08T00:06:48.153Z,16.81
2023-09-08T00:09:19.676Z,16.78
2023-09-08T00:11:51.241Z,16.73
2023-09-08T00:14:22.839Z,16.64
2023-09-08T00:16:57.298Z,16.59
2023-09-08T00:19:28.828Z,16.52
2023-09-08T00:22:00.525Z,16.43
2023-09-08T00:24:32.040Z,16.39
2023-09-08T00:27:03.695Z,16.32
2023-09-08T00:29:35.253Z,16.35
2023-09-08T00:32:07.052Z,16.34
2023-09-08T00:34:38.862Z,16.28
2023-09-08T00:37:10.990Z,16.29
2023-09-08T00:39:42.411Z,16.24
2023-09-08T00:42:13.979Z,16.26
2023-09-08T00:44:45.498Z,16.21
2023-09-08T00:47:17.089Z,16.22
2023-09-08T00:49:50.305Z,16.17
2023-09-08T00:52:21.899Z,16.14
2023-09-08T00:54:53.452Z,16.11
2023-09-08T00:57:25.304Z,16.05
2023-09-08T00:59:56.913Z,16.01
2023-09-08T01:02:28.954Z,15.99
2023-09-08T01:05:03.851Z,15.96
2023-09-08T01:07:36.451Z,15.89
2023-09-08T01:10:08.840Z,15.85
2023-09-08T01:12:40.946Z,15.86
2023-09-08T01:15:13.188Z,15.86
2023-09-08T01:17:44.943Z,15.85
2023-09-08T01:20:22.640Z,15.82
2023-09-08T01:23:19.945Z,15.76
2023-09-08T01:26:12.532Z,15.73
2023-09-08T01:28:45.004Z,15.68
2023-09-08T01:31:17.937Z,15.71
2023-09-08T01:33:49.941Z,15.74
2023-09-08T01:36:21.651Z,15.74
2023-09-08T01:38:53.296Z,15.68
2023-09-08T01:41:24.904Z,15.69
2023-09-08T01:43:56.450Z,15.62
2023-09-08T01:46:27.984Z,15.61
2023-09-08T01:48:59.576Z,15.58
2023-09-08T01:51:31.301Z,15.51
2023-09-08T01:54:03.003Z,15.46
2023-09-08T01:56:34.574Z,15.40
2023-09-08T01:59:06.178Z,15.37
2023-09-08T02:01:37.963Z,15.33
2023-09-08T02:04:09.750Z,15.27
2023-09-08T02:06:41.283Z,15.23
2023-09-08T02:09:15.619Z,15.20
2023-09-08T02:11:47.155Z,15.16
2023-09-08T02:14:18.687Z,15.16
2023-09-08T02:16:50.218Z,15.14
2023-09-08T02:19:21.906Z,15.19
2023-09-08T02:21:53.490Z,15.16
2023-09-08T02:24:25.090Z,15.11
2023-09-08T02:26:56.636Z,15.13
2023-09-08T02:29:28.178Z,15.11
2023-09-08T02:31:59.724Z,15.10
2023-09-08T02:34:31.328Z,15.02
2023-09-08T02:37:02.924Z,15.00
2023-09-08T02:39:34.715Z,14.94
2023-09-08T02:42:06.333Z,14.91
2023-09-08T02:44:37.908Z,14.85
2023-09-08T02:47:09.522Z,14.82
2023-09-08T02:49:41.255Z,14.81
2023-09-08T02:52:12.835Z,14.87
2023-09-08T02:54:44.394Z,14.81
2023-09-08T02:57:16.000Z,14.79
2023-09-08T02:59:52.265Z,14.74
2023-09-08T03:02:26.050Z,14.71
2023-09-08T03:04:57.858Z,14.71
2023-09-08T03:07:29.487Z,14.71
2023-09-08T03:10:01.068Z,14.74
2023-09-08T03:12:32.581Z,14.71
2023-09-08T03:15:05.198Z,14.65
2023-09-08T03:17:36.776Z,14.64
2023-09-08T03:20:12.550Z,14.62
2023-09-08T03:22:44.088Z,14.65
2023-09-08T03:25:16.203Z,14.67
2023-09-08T03:27:47.803Z,14.57
2023-09-08T03:30:19.365Z,14.63
2023-09-08T03:32:50.970Z,14.62
2023-09-08T03:35:22.580Z,14.59
2023-09-08T03:37:54.144Z,14.58
2023-09-08T03:40:25.795Z,14.55
2023-09-08T03:42:57.354Z,14.55
2023-09-08T03:45:28.938Z,14.52
2023-09-08T03:48:00.474Z,14.53
2023-09-08T03:50:32.257Z,14.52
2023-09-08T03:53:03.952Z,14.50
2023-09-08T03:55:35.525Z,14.43
2023-09-08T03:58:07.168Z,14.44
2023-09-08T04:00:38.844Z,14.39
2023-09-08T04:03:10.443Z,14.34
2023-09-08T04:05:42.134Z,14.30
2023-09-08T04:08:13.999Z,14.27
2023-09-08T04:10:45.609Z,14.25
2023-09-08T04:13:17.208Z,14.28
2023-09-08T04:15:48.915Z,14.31
2023-09-08T04:18:20.591Z,14.30
2023-09-08T04:20:52.341Z,14.31
2023-09-08T04:23:24.010Z,14.26
2023-09-08T04:25:55.627Z,14.28
2023-09-08T04:28:27.231Z,14.28
2023-09-08T04:30:58.851Z,14.26
2023-09-08T04:33:30.732Z,14.21
2023-09-08T04:36:02.436Z,14.23
2023-09-08T04:38:33.976Z,14.25
2023-09-08T04:41:08.645Z,14.21
2023-09-08T04:43:40.277Z,14.22
2023-09-08T04:46:11.896Z,14.21
2023-09-08T04:48:43.794Z,14.16
2023-09-08T04:51:15.727Z,14.17
2023-09-08T04:53:47.321Z,14.14
2023-09-08T04:56:18.928Z,14.12
2023-09-08T04:58:50.551Z,14.09
2023-09-08T05:01:22.184Z,14.13
2023-09-08T05:03:54.125Z,14.11
2023-09-08T05:06:26.257Z,14.10
2023-09-08T05:08:58.978Z,14.14
2023-09-08T05:11:30.529Z,14.16
2023-09-08T05:14:03.028Z,14.13
2023-09-08T05:16:38.889Z,14.16
2023-09-08T05:19:10.861Z,14.21
2023-09-08T05:21:44.373Z,14.26
2023-09-08T05:24:16.018Z,14.31
2023-09-08T05:26:48.275Z,14.35
2023-09-08T05:29:19.749Z,14.41
2023-09-08T05:31:51.263Z,14.44
2023-09-08T05:34:22.843Z,14.47
2023-09-08T05:36:54.398Z,14.51
2023-09-08T05:39:26.113Z,14.60
2023-09-08T05:41:57.658Z,14.62
2023-09-08T05:44:29.226Z,14.69
2023-09-08T05:47:00.773Z,14.74
2023-09-08T05:49:33.164Z,14.79
2023-09-08T05:52:06.249Z,14.85
2023-09-08T05:54:37.903Z,14.93
2023-09-08T05:57:09.401Z,15.00
2023-09-08T05:59:40.951Z,15.10
2023-09-08T06:02:12.547Z,15.20
2023-09-08T06:04:44.346Z,15.29
2023-09-08T06:07:15.875Z,15.38
2023-09-08T06:09:47.543Z,15.46
2023-09-08T06:12:19.109Z,15.53
2023-09-08T06:14:50.688Z,15.62
2023-09-08T06:17:22.249Z,15.67
2023-09-08T06:19:53.814Z,15.76
2023-09-08T06:22:25.316Z,15.82
2023-09-08T06:24:56.914Z,15.89
2023-09-08T06:27:28.529Z,15.96
2023-09-08T06:30:00.142Z,16.04
2023-09-08T06:32:31.741Z,16.11
2023-09-08T06:35:03.421Z,16.16
2023-09-08T06:37:39.351Z,16.21
2023-09-08T06:40:10.926Z,16.27
2023-09-08T06:42:42.563Z,16.35
2023-09-08T06:45:14.636Z,16.41
2023-09-08T06:47:46.373Z,16.43
2023-09-08T06:50:18.177Z,16.48
2023-09-08T06:52:53.807Z,16.53
2023-09-08T06:55:25.355Z,16.61
2023-09-08T06:57:56.965Z,16.65
2023-09-08T07:00:29.312Z,16.73
2023-09-08T07:03:01.204Z,16.81
2023-09-08T07:05:33.293Z,16.86
2023-09-08T07:08:05.066Z,16.92
2023-09-08T07:10:36.669Z,17.01
2023-09-08T07:13:08.226Z,16.96
2023-09-08T07:15:39.812Z,17.08
2023-09-08T07:18:11.543Z,17.12
2023-09-08T07:20:48.105Z,17.19
2023-09-08T07:23:19.905Z,17.22
2023-09-08T07:25:51.683Z,17.20
2023-09-08T07:28:24.077Z,17.36
2023-09-08T07:31:04.025Z,17.45
2023-09-08T07:33:35.913Z,17.54
2023-09-08T07:36:09.522Z,17.63
2023-09-08T07:38:41.222Z,17.72
2023-09-08T07:41:13.513Z,17.82
2023-09-08T07:43:46.793Z,17.75
2023-09-08T07:46:18.557Z,17.88
2023-09-08T07:48:50.960Z,18.00
2023-09-08T07:51:22.651Z,17.98
2023-09-08T07:53:54.797Z,18.14
2023-09-08T07:56:26.409Z,18.23
2023-09-08T07:58:57.926Z,18.33
2023-09-08T08:01:29.722Z,18.38
2023-09-08T08:04:04.351Z,18.46
2023-09-08T08:06:36.057Z,18.50
2023-09-08T08:09:07.741Z,18.58
2023-09-08T08:11:39.445Z,18.72
2023-09-08T08:14:11.035Z,18.81
2023-09-08T08:16:42.643Z,18.84
2023-09-08T08:19:14.578Z,18.94
2023-09-08T08:21:46.161Z,18.96
2023-09-08T08:24:17.738Z,19.16
2023-09-08T08:26:49.307Z,19.24
2023-09-08T08:29:20.908Z,19.34
2023-09-08T08:31:52.498Z,19.46
2023-09-08T08:34:24.212Z,19.45
2023-09-08T08:36:55.813Z,19.57
2023-09-08T08:39:27.318Z,19.73
2023-09-08T08:41:59.162Z,19.87
2023-09-08T08:44:30.846Z,19.97
2023-09-08T08:47:04.535Z,19.97
2023-09-08T08:49:37.460Z,20.12
2023-09-08T08:52:10.154Z,20.18
2023-09-08T08:54:43.666Z,20.34
2023-09-08T08:57:15.945Z,20.50
2023-09-08T08:59:49.676Z,20.66
2023-09-08T09:02:23.128Z,20.78
2023-09-08T09:04:55.190Z,20.65
2023-09-08T09:07:27.303Z,20.86
2023-09-08T09:09:59.474Z,20.92
2023-09-08T09:12:31.201Z,21.10
2023-09-08T09:15:05.320Z,21.28
2023-09-08T09:17:37.302Z,21.37
2023-09-08T09:20:21.376Z,21.47
2023-09-08T09:22:53.403Z,21.69
2023-09-08T09:25:28.237Z,21.81
2023-09-08T09:28:02.332Z,21.98
2023-09-08T09:30:52.353Z,22.13
2023-09-08T09:33:24.624Z,22.23
2023-09-08T09:35:58.449Z,22.33
2023-09-08T09:38:30.717Z,22.40
2023-09-08T09:41:02.477Z,22.49
2023-09-08T09:43:34.804Z,22.53
2023-09-08T09:46:09.990Z,22.71
2023-09-08T09:48:41.653Z,22.86
2023-09-08T09:51:22.101Z,23.03
2023-09-08T09:53:56.139Z,23.18
2023-09-08T09:56:28.221Z,23.30
2023-09-08T09:59:00.740Z,23.09
2023-09-08T10:01:33.376Z,23.21
2023-09-08T10:04:06.076Z,23.42
2023-09-08T10:06:39.143Z,23.63
2023-09-08T10:09:14.751Z,23.84
2023-09-08T10:11:49.885Z,24.01
2023-09-08T10:14:22.618Z,24.12
2023-09-08T10:16:58.079Z,24.24
2023-09-08T10:19:31.476Z,24.14
2023-09-08T10:22:05.395Z,24.02
2023-09-08T10:24:39.798Z,24.18
2023-09-08T10:27:12.760Z,24.27
2023-09-08T10:29:44.583Z,24.53
2023-09-08T10:32:17.904Z,24.67
2023-09-08T10:34:50.598Z,24.62
2023-09-08T10:37:30.304Z,24.93
2023-09-08T10:40:21.076Z,25.18
2023-09-08T10:43:08.169Z,25.34
2023-09-08T10:45:42.528Z,25.48
2023-09-08T10:48:15.705Z,25.50
2023-09-08T10:50:47.307Z,25.22
2023-09-08T10:53:19.330Z,25.06
2023-09-08T10:58:39.757Z,25.55
2023-09-08T11:01:18.720Z,25.81
2023-09-08T11:03:51.672Z,25.74
2023-09-08T11:06:23.699Z,25.83
2023-09-08T11:08:57.363Z,25.81
2023-09-08T11:11:34.778Z,26.00
2023-09-08T11:14:06.429Z,25.81
2023-09-08T11:16:38.424Z,26.14
2023-09-08T11:19:11.175Z,26.38
2023-09-08T11:21:43.295Z,26.53
2023-09-08T11:24:16.083Z,26.35
2023-09-08T11:26:51.274Z,26.26
2023-09-08T11:29:23.967Z,26.24
2023-09-08T11:31:55.652Z,26.06
2023-09-08T11:34:27.186Z,26.13
2023-09-08T11:36:58.889Z,26.32
2023-09-08T11:39:30.495Z,26.50
2023-09-08T11:42:02.115Z,26.41
2023-09-08T11:44:35.636Z,26.53
2023-09-08T11:47:11.753Z,26.39
2023-09-08T11:49:44.897Z,26.58
2023-09-08T11:52:16.584Z,26.60
2023-09-08T11:55:04.064Z,26.52
2023-09-08T11:57:38.870Z,26.39
2023-09-08T12:00:15.677Z,26.43
2023-09-08T12:02:47.356Z,26.77
2023-09-08T12:05:25.627Z,26.94
2023-09-08T12:07:59.040Z,27.14
2023-09-08T12:10:30.581Z,27.41
2023-09-08T12:13:02.184Z,27.23
2023-09-08T12:15:38.566Z,27.35
2023-09-08T12:18:16.716Z,27.34
2023-09-08T12:21:08.133Z,27.16
2023-09-08T12:23:50.478Z,27.50
2023-09-08T12:26:22.708Z,27.80
2023-09-08T12:28:54.346Z,27.85
2023-09-08T12:31:26.060Z,27.56
2023-09-08T12:33:57.865Z,27.91
2023-09-08T12:36:29.433Z,28.14
2023-09-08T12:39:00.959Z,28.14
2023-09-08T12:41:32.460Z,28.13
2023-09-08T12:44:04.239Z,27.77
2023-09-08T12:46:36.702Z,28.29
2023-09-08T12:49:10.211Z,28.56
2023-09-08T12:51:42.896Z,28.22
2023-09-08T12:54:14.483Z,28.29
2023-09-08T12:56:46.055Z,28.43
2023-09-08T12:59:17.683Z,28.77
2023-09-08T13:01:49.106Z,28.88
2023-09-08T13:04:20.755Z,28.68
2023-09-08T13:06:52.133Z,28.54
2023-09-08T13:09:23.807Z,28.54
2023-09-08T13:11:55.133Z,28.60
2023-09-08T13:14:26.705Z,28.89
2023-09-08T13:16:58.098Z,28.75
2023-09-08T13:19:30.417Z,28.90
2023-09-08T13:22:02.002Z,28.82
2023-09-08T13:24:34.943Z,28.54
2023-09-08T13:27:06.630Z,28.97
2023-09-08T13:29:38.166Z,28.89
2023-09-08T13:32:09.848Z,29.48
2023-09-08T13:34:41.543Z,29.25
2023-09-08T13:37:14.137Z,29.68
2023-09-08T13:39:45.903Z,29.52
2023-09-08T13:42:17.657Z,30.20
2023-09-08T13:44:49.364Z,30.67
2023-09-08T13:47:21.263Z,31.55
2023-09-08T13:49:55.694Z,32.65
2023-09-08T13:52:31.976Z,33.60
2023-09-08T13:55:30.299Z,34.97
2023-09-08T13:57:56.626Z,37.84
2023-09-08T14:03:06.436Z,41.74
2023-09-08T14:05:43.407Z,43.73
2023-09-08T14:08:21.288Z,45.53
2023-09-08T14:13:34.759Z,46.39
2023-09-08T14:16:06.731Z,47.02
2023-09-08T14:18:38.334Z,47.60
2023-09-08T14:21:09.893Z,47.92
2023-09-08T14:23:42.539Z,47.42
2023-09-08T14:26:14.177Z,49.21
2023-09-08T14:28:45.762Z,47.98
2023-09-08T14:31:17.353Z,48.65
2023-09-08T14:33:49.094Z,49.93
2023-09-08T14:36:20.851Z,48.88
2023-09-08T14:38:52.450Z,49.58
2023-09-08T14:41:24.076Z,48.52
2023-09-08T14:43:55.734Z,49.60
2023-09-08T14:46:27.409Z,46.98
2023-09-08T14:48:59.027Z,48.12
2023-09-08T14:51:30.581Z,49.75
2023-09-08T14:54:02.246Z,49.76
2023-09-08T14:56:33.797Z,50.70
2023-09-08T14:59:05.744Z,51.33
2023-09-08T15:01:39.770Z,51.53
2023-09-08T15:04:12.294Z,50.58
2023-09-08T15:06:44.000Z,49.04
2023-09-08T15:09:15.738Z,49.31
2023-09-08T15:11:47.288Z,50.87
2023-09-08T15:14:18.860Z,51.12
2023-09-08T15:16:50.486Z,51.00
2023-09-08T15:19:22.053Z,51.11
2023-09-08T15:21:53.619Z,52.06
2023-09-08T15:24:25.482Z,50.58
2023-09-08T15:26:58.251Z,50.12
2023-09-08T15:29:29.833Z,50.24
2023-09-08T15:32:01.710Z,49.75
2023-09-08T15:34:33.530Z,51.17
2023-09-08T15:37:05.114Z,51.36
2023-09-08T15:39:36.730Z,51.98
2023-09-08T15:42:08.321Z,52.40
2023-09-08T15:44:39.860Z,53.09
2023-09-08T15:47:11.378Z,52.51
2023-09-08T15:49:43.090Z,52.49
2023-09-08T15:52:16.765Z,53.00
2023-09-08T15:54:48.763Z,53.41
2023-09-08T15:57:20.470Z,51.86
2023-09-08T15:59:52.028Z,49.99
2023-09-08T16:02:23.671Z,49.90
2023-09-08T16:04:57.867Z,50.68
2023-09-08T16:07:29.527Z,50.72
2023-09-08T16:10:01.135Z,51.17
2023-09-08T16:12:32.801Z,47.77
2023-09-08T16:15:05.049Z,42.99
2023-09-08T16:17:36.637Z,40.48
2023-09-08T16:20:08.904Z,38.12
2023-09-08T16:22:40.546Z,36.54
2023-09-08T16:25:12.119Z,35.22
2023-09-08T16:27:43.992Z,34.37
2023-09-08T16:30:15.646Z,33.44
2023-09-08T16:32:47.580Z,32.88
2023-09-08T16:35:20.227Z,32.23
2023-09-08T16:37:51.795Z,31.82
2023-09-08T16:40:23.762Z,31.15
2023-09-08T16:42:56.203Z,30.79
2023-09-08T16:45:27.777Z,30.49
2023-09-08T16:47:59.442Z,29.56
2023-09-08T16:50:31.109Z,29.61
2023-09-08T16:53:02.710Z,29.40
2023-09-08T16:55:34.317Z,29.25
2023-09-08T16:58:05.960Z,28.88
2023-09-08T17:00:37.546Z,28.82
2023-09-08T17:03:09.256Z,28.68
2023-09-08T17:05:43.658Z,28.55
2023-09-08T17:08:16.749Z,28.41
2023-09-08T17:10:49.301Z,28.29
2023-09-08T17:13:20.859Z,28.16
2023-09-08T17:15:52.328Z,27.99
2023-09-08T17:18:25.977Z,27.85
2023-09-08T17:20:57.799Z,27.68
2023-09-08T17:23:29.418Z,27.54
2023-09-08T17:26:02.182Z,27.40
2023-09-08T17:28:35.786Z,27.30
2023-09-08T17:31:07.859Z,27.17
2023-09-08T17:33:39.708Z,27.04
2023-09-08T17:36:11.640Z,26.89
2023-09-08T17:38:43.151Z,26.77
2023-09-08T17:41:14.744Z,26.66
2023-09-08T17:43:47.570Z,26.56
2023-09-08T17:46:19.333Z,26.45
2023-09-08T17:48:51.075Z,26.34
2023-09-08T17:51:23.900Z,26.24
2023-09-08T17:53:55.323Z,26.13
2023-09-08T17:56:26.915Z,26.05
2023-09-08T17:58:58.482Z,25.95
2023-09-08T18:01:30.185Z,25.87
2023-09-08T18:04:01.749Z,25.75
2023-09-08T18:06:33.518Z,25.66
2023-09-08T18:09:05.198Z,25.57
2023-09-08T18:11:36.852Z,25.50
2023-09-08T18:14:08.449Z,25.41
2023-09-08T18:16:40.139Z,25.35
2023-09-08T18:19:12.458Z,25.27
2023-09-08T18:21:44.077Z,25.17
2023-09-08T18:24:15.654Z,25.09
2023-09-08T18:26:47.261Z,25.01
2023-09-08T18:29:20.213Z,24.96
2023-09-08T18:31:52.009Z,24.91
2023-09-08T18:34:24.878Z,24.82
2023-09-08T18:36:56.461Z,24.75
2023-09-08T18:39:28.025Z,24.68
2023-09-08T18:41:59.897Z,24.61
2023-09-08T18:44:31.373Z,24.50
2023-09-08T18:47:04.198Z,24.44
2023-09-08T18:49:35.766Z,24.38
2023-09-08T18:52:07.386Z,24.32
2023-09-08T18:54:40.790Z,24.23
2023-09-08T18:57:12.688Z,24.18
2023-09-08T18:59:44.267Z,24.09
2023-09-08T19:02:15.953Z,24.04
2023-09-08T19:04:47.924Z,23.92
2023-09-08T19:07:19.582Z,23.85
2023-09-08T19:09:51.195Z,23.78
2023-09-08T19:12:22.792Z,23.72
2023-09-08T19:14:56.086Z,23.69
2023-09-08T19:17:27.708Z,23.63
2023-09-08T19:19:59.456Z,23.54
2023-09-08T19:22:30.900Z,23.44
2023-09-08T19:25:02.553Z,23.38
2023-09-08T19:27:34.329Z,23.35
2023-09-08T19:30:06.997Z,23.27
2023-09-08T19:32:38.782Z,23.23
2023-09-08T19:35:10.456Z,23.14
2023-09-08T19:37:42.115Z,23.11
2023-09-08T19:40:14.642Z,23.07
2023-09-08T19:42:46.264Z,23.04
2023-09-08T19:45:17.843Z,22.96
2023-09-08T19:47:49.762Z,22.93
2023-09-08T19:50:21.490Z,22.88
2023-09-08T19:52:53.131Z,22.82
2023-09-08T19:55:24.674Z,22.79
2023-09-08T19:57:56.378Z,22.71
2023-09-08T20:00:27.979Z,22.67
2023-09-08T20:02:59.654Z,22.63
2023-09-08T20:05:31.251Z,22.54
2023-09-08T20:08:03.140Z,22.53
2023-09-08T20:10:34.540Z,22.47
2023-09-08T20:13:06.226Z,22.45
2023-09-08T20:15:37.776Z,22.39
2023-09-08T20:18:09.585Z,22.34
2023-09-08T20:20:41.816Z,22.31
2023-09-08T20:23:14.728Z,22.21
2023-09-08T20:25:46.350Z,22.16
2023-09-08T20:28:17.950Z,22.06
2023-09-08T20:31:01.562Z,22.06
2023-09-08T20:33:41.018Z,21.95
2023-09-08T20:36:13.335Z,21.89
2023-09-08T20:38:45.213Z,21.87
2023-09-08T20:41:16.936Z,21.78
2023-09-08T20:43:48.679Z,21.71
2023-09-08T20:46:20.269Z,21.66
2023-09-08T20:48:51.974Z,21.64
2023-09-08T20:51:24.275Z,21.56
2023-09-08T20:53:56.273Z,21.53
2023-09-08T20:56:27.646Z,21.48
2023-09-08T20:58:59.201Z,21.45
2023-09-08T21:01:32.767Z,21.47
2023-09-08T21:04:04.899Z,21.39
2023-09-08T21:06:37.019Z,21.39
2023-09-08T21:09:08.825Z,21.39
2023-09-08T21:11:40.441Z,21.27
2023-09-08T21:14:13.060Z,21.23
2023-09-08T21:16:45.013Z,21.15
2023-09-08T21:19:20.029Z,21.14
2023-09-08T21:21:51.635Z,21.11
2023-09-08T21:24:23.581Z,21.08
2023-09-08T21:26:55.199Z,21.09
2023-09-08T21:29:26.798Z,21.05
2023-09-08T21:31:58.428Z,21.03
2023-09-08T21:34:30.756Z,21.02
2023-09-08T21:37:03.769Z,20.95
2023-09-08T21:39:36.584Z,20.90
2023-09-08T21:42:08.639Z,20.90
2023-09-08T21:44:40.320Z,20.89
2023-09-08T21:47:11.894Z,20.82
2023-09-08T21:49:43.638Z,20.77
2023-09-08T21:52:21.473Z,20.72
2023-09-08T21:55:04.308Z,20.70
2023-09-08T21:57:35.915Z,20.65
2023-09-08T22:00:12.065Z,20.59
2023-09-08T22:02:44.066Z,20.53
2023-09-08T22:05:16.919Z,20.49
2023-09-08T22:07:50.651Z,20.43
2023-09-08T22:10:22.994Z,20.36
2023-09-08T22:12:57.102Z,20.28
2023-09-08T22:15:28.983Z,20.22
2023-09-08T22:18:00.591Z,20.16
2023-09-08T22:20:32.178Z,20.14
2023-09-08T22:23:03.945Z,20.10
2023-09-08T22:25:35.518Z,20.08
2023-09-08T22:28:07.650Z,20.07
2023-09-08T22:30:39.303Z,20.03
2023-09-08T22:33:11.061Z,20.02
2023-09-08T22:35:42.863Z,19.99
2023-09-08T22:38:15.805Z,19.94
2023-09-08T22:40:47.399Z,19.95
2023-09-08T22:43:18.955Z,19.92
2023-09-08T22:45:50.884Z,19.87
2023-09-08T22:48:23.282Z,19.80
2023-09-08T22:50:54.876Z,19.79
2023-09-08T22:53:26.504Z,19.76
2023-09-08T22:55:58.330Z,19.67
2023-09-08T22:58:42.914Z,19.62
2023-09-08T23:01:14.637Z,19.63
2023-09-08T23:03:46.286Z,19.57
2023-09-08T23:06:19.477Z,19.57
2023-09-08T23:08:51.263Z,19.58
2023-09-08T23:11:22.943Z,19.56
2023-09-08T23:13:54.516Z,19.56
2023-09-08T23:16:26.177Z,19.56
2023-09-08T23:18:58.929Z,19.55
2023-09-08T23:21:30.484Z,19.51
2023-09-08T23:24:02.062Z,19.50
2023-09-08T23:26:33.906Z,19.46
2023-09-08T23:29:05.473Z,19.46
2023-09-08T23:31:37.125Z,19.40
2023-09-08T23:34:13.408Z,19.32
2023-09-08T23:36:45.030Z,19.32
2023-09-08T23:39:16.587Z,19.30
2023-09-08T23:41:48.174Z,19.27
2023-09-08T23:44:20.771Z,19.17
2023-09-08T23:46:53.079Z,19.16
2023-09-08T23:49:24.589Z,19.13
2023-09-08T23:51:56.214Z,19.17
2023-09-08T23:54:28.033Z,19.16
2023-09-08T23:57:00.729Z,19.12
2023-09-08T23:59:32.419Z,19.14
